Terminal Aerodrome Forecast
Issued by NWS Wilmington, OH

Current Version | Previous Version | Graphics & Text | Print | Product List | Glossary On
Versions: 1 2 3 4 5 6 7 8 9 10 11 12 13 14 15 16 17 18 19 20 21 22 23 24 25
000
FTUS41 KILN 182100 AAA
TAFCMH
TAF AMD
KCMH 182110Z 1821/1918 24016G22KT P6SM BKN025
      TEMPO 1821/1823 2SM -SN
     FM182300 23012KT P6SM OVC025
     FM190900 19008KT P6SM BKN050
     FM191400 19014G22KT P6SM BKN060=

USA.gov is the U.S. government's official web portal to all federal, state and local government web resources and services.